Decoded Metar for EPLB ( in ) (IATA:) | Meteo·Mobile Aviation Weather
aviador You're here:

EPLB Decoded Metar

in
Report Time2018-08-22 04:00:00
UTC Time2018-08-22 04:30:15
Flight Rules vfr VFR
WindVRB at 02 kt
Visibility9999 m
Phenomena:N/A
Clouds:N/A
Expected CloudBase > 400 ft AGL from Temp-Dew spread
CeilingNone
Temp10°C
Dew Point09°C (94% RH)
AAT9.1°C
QNH1022 hPa
Raw Report
EPLB 220400Z VRB02KT CAVOK 10/09 Q1022=

Extra information for EPLB:More info

Social comments